• Join FlightAware (Why Join?)
  • Login
  • US Flag 
10:28PM EDT


 

Airport Tracker/Info


-or-


 

Live Flight TrackerFlight Track Log ✈ ASQ5678 ✈ 09-Jan-2014 ✈ KEWR - KCVG

Flight Track Log - Related Links

Times and Time Zones

All times are in EST time to prevent confusion due to time zone crossing. See the ASQ5678 flight status page for this flight to view local times or setup timezone preferences in your user account.

Time Position Orientation Groundspeed Altitude Reporting Facility
EST Latitude Longitude Course Direction KTS MPH feet Rate Location/Type
06:09PM 40.6500 -74.1833 217° Southwest 177 204 1,700  Level New York TRACON
06:10PM 40.6167 -74.2167 217° Southwest 234 269 4,300 2,760 Climbing New York TRACON
06:11PM 40.6167 -74.3167 270° West 248 285 7,300 2,760 Climbing New York TRACON
06:12PM 40.6167 -74.4000 270° West 252 290 9,900 1,680 Climbing New York TRACON
06:13PM 40.6333 -74.5000 282° West 301 346 10,700 1,080 Climbing New York TRACON
06:14PM 40.6500 -74.6333 279° West 330 380 12,200 1,560 Climbing New York TRACON
06:15PM 40.6581 -74.7786 274° West 332 382 14,400 1,380 Climbing New York Center
06:16PM 40.6686 -74.8997 277° West 332 382 15,400 1,020 Climbing New York Center
06:17PM 40.6772 -75.0097 276° West 338 389 16,500 1,080 Climbing New York Center
06:18PM 40.6514 -75.1447 256° West 333 383 17,600 900 Climbing New York Center
06:19PM 40.6036 -75.2539 240° Southwest 338 389 18,400 1,080 Climbing New York Center
06:20PM 40.5533 -75.3653 239° Southwest 350 403 19,800 1,440 Climbing New York Center
06:21PM 40.5033 -75.4739 239° Southwest 350 403 21,300 1,320 Climbing New York Center
06:22PM 40.4553 -75.5797 239° Southwest 345 397 22,500 1,080 Climbing New York Center
06:23PM 40.4050 -75.6881 239° Southwest 345 397 23,500 960 Climbing New York Center
06:24PM 40.3544 -75.7989 239° Southwest 345 397 24,500 960 Climbing New York Center
06:25PM 40.3042 -75.9014 237° Southwest 355 409 25,500 960 Climbing New York Center
06:26PM 40.2514 -76.0089 237° Southwest 355 409 26,500 960 Climbing New York Center
06:27PM 40.2008 -76.1164 238° Southwest 355 409 27,500 960 Climbing New York Center
06:28PM 40.1494 -76.2347 240° Southwest 349 402 28,500 960 Climbing New York Center
06:29PM 40.1058 -76.3208 237° Southwest 354 407 29,500 1,020 Climbing New York Center
06:32PM 39.9825 -76.5906 239° Southwest 341 392 32,000 1,020 Climbing Washington Center
06:33PM 39.9336 -76.6981 239° Southwest 359 413 33,000 900 Climbing Washington Center
06:34PM 39.8847 -76.7947 237° Southwest 365 420 33,900 900 Climbing Washington Center
06:35PM 39.8358 -76.9019 239° Southwest 365 420 34,900 960 Climbing Washington Center
06:36PM 39.7844 -77.0092 238° Southwest 360 414 35,900 540 Climbing Washington Center
06:37PM 39.7331 -77.1186 239° Southwest 355 409 36,000  Climbing Washington Center
06:38PM 39.6797 -77.2308 238° Southwest 355 409 36,000  Level Washington Center
06:39PM 39.6281 -77.3400 238° Southwest 355 409 36,000  Level Washington Center
06:40PM 39.5764 -77.4492 238° Southwest 365 420 36,000  Level Washington Center
06:41PM 39.5247 -77.5608 239° Southwest 365 420 36,000  Level Washington Center
06:42PM 39.4708 -77.6669 237° Southwest 365 420 36,000  Level Washington Center
06:43PM 39.4208 -77.7756 239° Southwest 360 414 36,000  Level Washington Center
06:44PM 39.3711 -77.8842 239° Southwest 355 409 36,000  Level Washington Center
06:45PM 39.3292 -77.9956 244° Southwest 350 403 36,000  Level Washington Center
06:46PM 39.2831 -78.1067 242° Southwest 345 397 36,000  Level Washington Center
06:47PM 39.2369 -78.2231 243° Southwest 357 411 36,000  Level Washington Center
06:48PM 39.1886 -78.3364 241° Southwest 363 418 36,000  Level Washington Center
06:49PM 39.1442 -78.4500 243° Southwest 363 418 36,000  Level Washington Center
06:50PM 39.0997 -78.5631 243° Southwest 363 418 36,000  Level Washington Center
06:51PM 39.0572 -78.6792 245° Southwest 363 418 36,000  Level Washington Center
06:52PM 39.0375 -78.7986 258° West 353 406 36,000  Level Washington Center
06:53PM 39.0197 -78.9181 259° West 345 397 36,000  Level Washington Center
06:54PM 38.9994 -79.0400 258° West 350 403 36,000  Level Washington Center
06:55PM 38.9792 -79.1619 258° West 350 403 36,000  Level Washington Center
06:56PM 38.9611 -79.2836 259° West 355 409 36,000 -240 Level Washington Center
06:57PM 38.9406 -79.4056 258° West 355 409 35,600 -540 Descending Washington Center
06:58PM 38.9200 -79.5272 258° West 355 409 35,000 -360 Descending Washington Center
06:59PM 38.9006 -79.6675 260° West 369 425 35,000  Level Washington Center
07:00PM 38.8797 -79.7917 258° West 369 425 35,000  Level Washington Center
07:01PM 38.8611 -79.9053 258° West 369 425 35,000  Level Washington Center
07:02PM 38.8400 -80.0242 257° West 363 418 35,000  Level Washington Center
07:03PM 38.8167 -80.1658 258° West 353 406 35,000  Level Indianapolis Center
07:04PM 38.8144 -80.3072 269° West 331 381 35,000  Level Indianapolis Center
07:05PM 38.8111 -80.4222 268° West 324 373 35,000  Level Indianapolis Center
07:06PM 38.8083 -80.5378 268° West 324 373 35,000  Level Indianapolis Center
07:07PM 38.8047 -80.6533 268° West 324 373 35,000  Level Indianapolis Center
07:08PM 38.7900 -80.7681 261° West 328 377 35,000  Level Indianapolis Center
07:09PM 38.7725 -80.8831 259° West 329 379 35,000  Level Indianapolis Center
07:10PM 38.7556 -80.9981 259° West 328 377 35,000  Level Indianapolis Center
07:11PM 38.7386 -81.1153 260° West 333 383 35,000 -420 Level Indianapolis Center
07:12PM 38.7181 -81.2542 259° West 332 382 34,200 -600 Descending Indianapolis Center
07:13PM 38.7011 -81.3683 259° West 326 375 33,800 -780 Descending Indianapolis Center
07:14PM 38.6825 -81.4875 259° West 327 376 32,700 -1,020 Descending Indianapolis Center
07:15PM 38.6656 -81.6033 259° West 330 380 31,700 -1,080 Descending Indianapolis Center
07:16PM 38.6467 -81.7294 259° West 342 394 30,600 -1,080 Descending Indianapolis Center
07:17PM 38.6278 -81.8500 259° West 344 396 29,600 -1,020 Descending Indianapolis Center
07:18PM 38.6081 -81.9736 258° West 352 405 28,600 -1,140 Descending Indianapolis Center
07:19PM 38.5881 -82.1019 259° West 365 420 27,300 -1,440 Descending Indianapolis Center
07:20PM 38.5675 -82.2361 259° West 380 437 25,700 -1,500 Descending Indianapolis Center
07:21PM 38.5458 -82.3706 258° West 387 445 24,300 -840 Descending Indianapolis Center
07:22PM 38.5222 -82.5181 258° West 384 442 24,000 -720 Descending Indianapolis Center
07:24PM 38.4874 -82.6528 257° West  Level FlightAware Approximate
07:24PM 38.4794 -82.7783 257° West 371 427 22,200  Level Indianapolis Center
07:25PM 38.4717 -82.9144 266° West 386 444 22,000 -120 Descending Indianapolis Center
07:26PM 38.4953 -83.0731 281° West 390 449 22,000  Level Indianapolis Center
07:27PM 38.5147 -83.2081 280° West 388 447 22,000 -840 Level Indianapolis Center
07:28PM 38.5333 -83.3403 280° West 381 438 20,400 -2,040 Descending Indianapolis Center
07:30PM 38.5511 -83.4692 280° West 373 429 17,900 -2,400 Descending Indianapolis Center
07:31PM 38.5686 -83.5942 280° West 361 415 15,600 -2,520 Descending Indianapolis Center
07:32PM 38.5839 -83.7103 280° West 338 389 12,800 -2,580 Descending Indianapolis Center
07:33PM 38.6036 -83.8483 280° West 337 388 10,300 -1,380 Descending Indianapolis Center
07:34PM 38.6303 -83.9567 288° West 328 377 10,000 -180 Descending Indianapolis Center
07:35PM 38.6750 -84.0414 304° West 334 384 10,000  Level Indianapolis Center
07:36PM 38.7250 -84.1392 303° West 329 379 10,000  Level Indianapolis Center
07:37PM 38.7839 -84.2525 304° West 320 368 10,000  Level Indianapolis Center
07:38PM 38.8339 -84.3483 304° West 323 372 10,000  Level Indianapolis Center
07:39PM 38.8847 -84.4481 303° West 331 381 10,000 -60 Level Indianapolis Center
07:40PM 38.9444 -84.5286 314° West 309 356 9,900 -1,020 Descending Indianapolis Center
07:41PM 39.0250 -84.5400 354° North 296 341 8,000 -2,040 Descending Indianapolis Center
07:42PM 39.1044 -84.5414 359° North 289 333 5,800 -2,100 Descending Indianapolis Center
07:43PM 39.1878 -84.5450 358° North 283 326 3,800 -960 Descending Indianapolis Center
07:45PM 39.2167 -84.6500 290° West 198 228 3,000 -300 Descending Cincinnati TRACON
07:46PM 39.1667 -84.6500 180° South 190 219 3,000 -420 Level Cincinnati TRACON
07:47PM 39.1167 -84.6500 180° South 106 122 2,200 -720 Descending Cincinnati TRACON
07:48PM 39.0833 -84.6500 180° South 117 135 1,600 -600 Descending Cincinnati TRACON
07:50PM 39.0488 -84.6678 195° South  Level Estimated
07:57PM 39.0488 -84.6678 195° South  Level Estimated